• Join FlightAware (Why Join?)
  • Login
  • US Flag 
01:32AM EDT


 

Airport Tracker/Info


-or-


 

Live Flight TrackerFlight Track Log ✈ AAL1482 ✈ 22-Apr-2013 ✈ KLAS - KDFW

Flight Track Log - Related Links

Times and Time Zones

All times are in EDT time to prevent confusion due to time zone crossing. See the AAL1482 flight status page for this flight to view local times or setup timezone preferences in your user account.

Time Position Orientation Groundspeed Altitude Reporting Facility
EDT Latitude Longitude Course Direction KTS MPH feet Rate Location/Type
08:33PM 36.0761 -115.1683 84° East 174 200 3,100  Level Los Angeles Center
08:34PM 36.0667 -115.2539 262° West 238 274 5,300 1,680 Climbing Los Angeles Center
08:35PM 35.8836 -115.2644 161° South  Level FlightAware Approximate
08:35PM 36.0394 -115.2733 210° Southwest 252 290 6,300  Level Los Angeles Center
08:35PM 36.0089 -115.2861 199° South 265 305 6,900 840 Climbing Los Angeles Center
08:36PM 35.8299 -115.1395 103° East  Level FlightAware Approximate
08:36PM 35.9500 -115.2956 187° South 271 312 7,200  Level Los Angeles Center
08:36PM 35.9172 -115.2817 161° South 313 360 8,700 3,720 Climbing Los Angeles Center
08:37PM 35.8241 -114.9848 84° East  Level FlightAware Approximate
08:37PM 35.8694 -115.2544 155° Southeast 297 342 11,000  Level Los Angeles Center
08:37PM 35.8578 -115.2267 117° Southeast 311 358 11,400 1,800 Climbing Los Angeles Center
08:38PM 35.8365 -114.8286 84° East  Level FlightAware Approximate
08:38PM 35.8381 -115.1444 106° East 341 392 12,900  Level Los Angeles Center
08:38PM 35.8267 -115.0936 105° East 374 430 14,100 2,760 Climbing Los Angeles Center
08:39PM 35.8256 -115.0150 91° East 377 434 15,800 2,820 Climbing Los Angeles Center
08:39PM 35.8311 -114.9569 83° East 397 457 17,000 2,700 Climbing Los Angeles Center
08:40PM 35.8389 -114.8797 83° East 396 456 18,600 2,340 Climbing Los Angeles Center
08:41PM 35.8522 -114.7353 83° East 416 479 21,100 2,280 Climbing Los Angeles Center
08:42PM 35.8653 -114.5864 84° East 431 496 23,400 2,280 Climbing Los Angeles Center
08:43PM 35.8814 -114.3986 84° East 452 520 25,900 2,100 Climbing Los Angeles Center
08:44PM 35.8953 -114.2364 84° East 470 541 27,800 1,800 Climbing Los Angeles Center
08:45PM 35.9086 -114.0700 84° East 482 555 29,700 1,740 Climbing Los Angeles Center
08:46PM 35.9214 -113.9003 85° East 493 567 31,500 1,800 Climbing Los Angeles Center
08:47PM 35.8967 -113.7328 100° East 494 568 33,500 1,980 Climbing Los Angeles Center
08:48PM 35.8667 -113.5467 101° East 495 570 35,600 1,800 Climbing Los Angeles Center
08:49PM 35.8400 -113.3828 101° East 491 565 37,300 1,260 Climbing Los Angeles Center
08:50PM 35.8144 -113.2214 101° East 483 556 38,300 900 Climbing Los Angeles Center
08:51PM 35.7881 -113.0556 101° East 490 564 39,200 660 Climbing Los Angeles Center
08:52PM 35.7611 -112.8886 101° East 495 570 39,700 540 Climbing Los Angeles Center
08:53PM 35.7333 -112.7181 101° East 504 580 40,400 540 Climbing Los Angeles Center
08:54PM 35.7039 -112.5478 102° East 507 583 40,900 240 Climbing Los Angeles Center
08:55PM 35.6700 -112.3414 101° East 512 589 41,000  Climbing Los Angeles Center
08:56PM 35.6392 -112.1692 102° East 516 594 41,000  Level Los Angeles Center
08:57PM 35.6156 -112.0339 102° East 513 590 41,000  Level Albuquerque Center
08:58PM 35.5892 -111.8636 101° East 512 589 41,000  Level Albuquerque Center
08:59PM 35.5856 -111.6928 91° East 504 580 41,000  Level Albuquerque Center
09:00PM 35.5800 -111.4906 92° East 499 574 41,000  Level Albuquerque Center
09:01PM 35.5756 -111.3114 92° East 499 574 41,000  Level Albuquerque Center
09:02PM 35.5700 -111.1472 92° East 502 578 41,000  Level Albuquerque Center
09:03PM 35.5642 -110.9808 92° East 507 583 41,000  Level Albuquerque Center
09:04PM 35.5578 -110.7869 92° East 510 587 41,000  Level Albuquerque Center
09:05PM 35.5519 -110.6192 92° East 512 589 41,000  Level Albuquerque Center
09:06PM 35.5447 -110.4236 93° East 513 590 41,000  Level Albuquerque Center
09:07PM 35.5375 -110.2547 93° East 516 594 41,000  Level Albuquerque Center
09:09PM 35.5317 -110.0594 92° East 515 593 41,000  Level Albuquerque Center
09:10PM 35.5239 -109.8925 93° East 514 592 41,000  Level Albuquerque Center
09:11PM 35.5175 -109.7239 93° East 516 594 41,000  Level Albuquerque Center
09:12PM 35.5089 -109.5272 93° East 518 596 41,000  Level Albuquerque Center
09:13PM 35.5006 -109.3567 93° East 522 601 41,000  Level Albuquerque Center
09:14PM 35.4914 -109.1622 93° East 518 596 41,000  Level Albuquerque Center
09:15PM 35.4831 -108.9956 93° East 515 593 41,000  Level Albuquerque Center
09:16PM 35.4628 -108.8039 97° East 513 590 41,000  Level Albuquerque Center
09:17PM 35.4317 -108.6436 103° East 510 587 41,000  Level Albuquerque Center
09:18PM 35.3989 -108.4825 104° East 510 587 41,000  Level Albuquerque Center
09:19PM 35.3611 -108.2953 104° East 509 586 41,000  Level Albuquerque Center
09:20PM 35.3281 -108.1356 104° East 508 585 41,000  Level Albuquerque Center
09:21PM 35.2883 -107.9497 105° East 507 583 41,000  Level Albuquerque Center
09:22PM 35.2558 -107.7892 104° East 508 585 41,000  Level Albuquerque Center
09:23PM 35.2211 -107.6289 105° East 510 587 41,000  Level Albuquerque Center
09:24PM 35.1867 -107.4664 104° East 509 586 41,000  Level Albuquerque Center
09:25PM 35.1425 -107.2636 105° East 513 590 41,000  Level Albuquerque Center
09:26PM 35.1072 -107.0892 104° East 518 596 41,000  Level Albuquerque Center
09:27PM 35.0711 -106.9292 105° East 512 589 41,000  Level Albuquerque Center
09:28PM 35.0300 -106.7425 105° East 511 588 41,000  Level Albuquerque Center
09:29PM 35.0133 -106.5744 97° East 514 592 41,000  Level Albuquerque Center
09:30PM 34.9903 -106.3864 98° East 530 610 41,000  Level Albuquerque Center
09:31PM 34.9681 -106.2136 99° East 520 598 41,000  Level Albuquerque Center
09:32PM 34.9469 -106.0394 98° East 519 597 41,000  Level Albuquerque Center
09:33PM 34.9269 -105.8792 99° East 515 593 41,100  Climbing Albuquerque Center
09:34PM 34.9008 -105.6778 99° East 513 590 41,000 -60 Descending Albuquerque Center
09:35PM 34.8778 -105.5058 99° East 511 588 41,000  Level Albuquerque Center
09:36PM 34.8544 -105.3333 99° East 512 589 41,000  Level Albuquerque Center
09:37PM 34.8306 -105.1614 100° East 512 589 41,000  Level Albuquerque Center
09:38PM 34.8067 -104.9906 100° East 510 587 41,000  Level Albuquerque Center
09:39PM 34.7836 -104.8214 99° East 507 583 41,000  Level Albuquerque Center
09:40PM 34.7600 -104.6519 100° East 506 582 41,000  Level Albuquerque Center
09:41PM 34.7372 -104.4847 99° East 502 578 41,000  Level Albuquerque Center
09:42PM 34.7122 -104.3158 100° East 505 581 41,000  Level Albuquerque Center
09:43PM 34.6892 -104.1456 99° East 509 586 41,000  Level Albuquerque Center
09:44PM 34.6611 -103.9472 100° East 510 587 41,000  Level Albuquerque Center
09:45PM 34.6369 -103.7772 100° East 510 587 41,000  Level Albuquerque Center
09:46PM 34.6117 -103.6025 100° East 518 596 41,000  Level Albuquerque Center
09:47PM 34.5872 -103.4281 100° East 521 600 41,000  Level Albuquerque Center
09:48PM 34.5617 -103.2517 100° East 526 605 41,000  Level Albuquerque Center
09:49PM 34.5336 -103.0731 101° East 533 613 41,000  Level Albuquerque Center
09:50PM 34.5061 -102.8953 101° East 534 615 41,000  Level Albuquerque Center
09:51PM 34.4836 -102.7217 99° East 533 613 41,000  Level Albuquerque Center
09:52PM 34.4658 -102.5433 97° East 536 617 41,000  Level Albuquerque Center
09:53PM 34.4478 -102.3667 97° East 534 615 41,000  Level Albuquerque Center
09:55PM 34.4250 -102.1556 97° East 532 612 41,000  Level Albuquerque Center
09:56PM 34.4061 -101.9792 97° East 531 611 41,000  Level Albuquerque Center
09:57PM 34.3878 -101.8056 97° East 529 609 41,000  Level Albuquerque Center
09:58PM 34.3689 -101.6303 97° East 528 608 41,000  Level Albuquerque Center
09:58PM 34.3594 -101.5467 98° East 521 600 41,000  Level Fort Worth Center
09:59PM 34.3403 -101.3722 98° East 521 600 41,000  Level Fort Worth Center
10:02PM 34.3041 -101.0827 99° East  Level FlightAware Approximate
10:02PM 34.2886 -100.9411 99° East 516 594 41,000  Level Albuquerque Center
10:02PM 34.2819 -100.8719 97° East 516 594 41,000  Level Fort Worth Center
10:03PM 34.2617 -100.7003 98° East 516 594 41,000  Level Fort Worth Center
10:04PM 34.2408 -100.5311 98° East 516 594 41,000  Level Fort Worth Center
10:05PM 34.2161 -100.3469 99° East 510 587 41,000  Level Fort Worth Center
10:06PM 34.1844 -100.1828 103° East 500 575 41,000 -480 Level Fort Worth Center
10:07PM 34.1400 -100.0156 108° East 506 582 40,100 -960 Descending Fort Worth Center
10:08PM 34.0994 -99.8564 107° East 506 582 39,100 -1,140 Descending Fort Worth Center
10:09PM 34.0564 -99.6997 108° East 501 577 37,900 -1,380 Descending Fort Worth Center
10:10PM 34.0133 -99.5408 108° East 489 563 36,400 -1,500 Descending Fort Worth Center
10:11PM 33.9719 -99.3844 108° East 489 563 35,000 -720 Descending Fort Worth Center
10:12PM 33.9264 -99.2283 109° East 489 563 35,000 -1,320 Level Fort Worth Center
10:13PM 33.8764 -99.0772 112° Southeast 484 557 32,400 -2,700 Descending Fort Worth Center
10:14PM 33.8342 -98.9514 112° Southeast 490 564 29,700 -2,640 Descending Fort Worth Center
10:15PM 33.7717 -98.7678 112° Southeast 495 570 27,200 -2,640 Descending Fort Worth Center
10:16PM 33.7208 -98.6222 113° Southeast 489 563 24,500 -2,400 Descending Fort Worth Center
10:17PM 33.6722 -98.4767 112° Southeast 477 549 22,400 -2,220 Descending Fort Worth Center
10:18PM 33.6253 -98.3389 112° Southeast 460 529 20,100 -2,340 Descending Fort Worth Center
10:19PM 33.5803 -98.2064 112° Southeast 441 507 17,800 -2,100 Descending Fort Worth Center
10:20PM 33.5331 -98.0764 114° Southeast 435 501 15,900 -2,040 Descending Fort Worth Center
10:21PM 33.4897 -97.9489 112° Southeast 411 473 13,800 -1,860 Descending Fort Worth Center
10:22PM 33.4506 -97.8317 112° Southeast 395 455 12,200 -1,380 Descending Fort Worth Center
10:23PM 33.4111 -97.7244 114° Southeast 364 419 11,100 -1,140 Descending Fort Worth Center
10:24PM 33.3739 -97.6275 115° Southeast 334 384 10,000 -1,320 Descending Fort Worth Center
10:25PM 33.3383 -97.5353 115° Southeast 311 358 8,500 -1,380 Descending Fort Worth Center
10:26PM 33.3031 -97.4508 117° Southeast 306 352 7,300 -1,380 Descending Fort Worth Center
10:27PM 33.2656 -97.3564 115° Southeast 296 341 5,800 -1,200 Descending Fort Worth Center
10:28PM 33.2300 -97.2869 121° Southeast 285 328 5,000 -420 Descending Fort Worth Center
10:29PM 33.1756 -97.2197 134° Southeast 264 304 5,000 -240 Level Fort Worth Center
10:30PM 33.1336 -97.1728 137° Southeast 235 270 4,600 -720 Descending Fort Worth Center
10:31PM 33.1000 -97.1167 126° Southeast 201 231 3,700 -1,020 Descending Dallas / Fort Worth TRACON